AirNav   Everest Fuels
 
 1110 users online  

TN10 Lake View Airport
Sharps Chapel, Tennessee, USA

GOING TO SHARPS CHAPEL?


FAA INFORMATION EFFECTIVE 16 JULY 2020

Location

FAA Identifier: TN10
Lat/Long: 36-20-20.2890N 083-46-43.6820W
36-20.338150N 083-46.728033W
36.3389692,-83.7788006
(estimated)
Elevation: 1066 ft. / 325 m (estimated)
Variation: 03W (1985)
From city: 2 miles E of SHARPS CHAPEL, TN
Time zone: UTC -4 (UTC -5 during Standard Time)
Zip code: 37866

Airport Operations

Airport use: Private use. Permission required prior to landing
Activation date: 01/1951
Control tower: no
ARTCC: ATLANTA CENTER
FSS: NASHVILLE FLIGHT SERVICE STATION
Attendance: UNATNDD
Wind indicator: no
Segmented circle: no

Airport Communications

WX AWOS-3 at 1A6 (16 nm N): 119.425 (606-248-3095)
WX AWOS-3 at JAU (19 nm W): 124.975 (423-566-6474)

Nearby radio navigation aids

VOR radial/distance  VOR name  Freq  Var
VXVr015/26.6VOLUNTEER VORTAC116.4003W

 
NDB name  Hdg/Dist  Freq  Var  ID
JEFFERSON317/20.134604WJXT .--- -..- -

Airport Services

Airframe service: NONE
Powerplant service: NONE

Runway Information

Runway E/W

Dimensions: 2300 x 50 ft. / 701 x 15 m
Surface: turf
RUNWAY E  RUNWAY W
Traffic pattern: leftleft
Obstructions: road, 50 ft. from runway
PLINE 7:1 AT 300', 4' FENCE ADJACENT TO RWY END.
none

Airport Ownership and Management from official FAA records

Ownership: Privately-owned
Owner: JAMES GILES REALTY CORP.
503 CHERRY AVE.
NEW TAZEWELL, TN 37825
Phone 423-626-5030
Manager: DONNA GILES BRYANT
503 CHERRY AVE.
NEW TAZEWELL, TN 37825
Phone 423-626-5030

Additional Remarks

CATTLE GRAZING ON AND INVOF ARPT.
FOR CD CTC ATLANTA ARTCC AT 770-210-7692.

Instrument Procedures

There are no published instrument procedures at TN10.

Some nearby airports with instrument procedures:

3A2 - New Tazewell Municipal Airport (11 nm E)
1A6 - Middlesboro-Bell County Airport (16 nm N)
KJAU - Colonel Tommy C Stiner Airfield (19 nm W)
KMOR - Moore-Murrell Airport (22 nm SE)
KDKX - Knoxville Downtown Island Airport (23 nm S)
 
Loc | Ops | Rwys | IFR | FBO | Links
Com | Nav | Svcs | Stats | Notes
Area around TN10 (Lake View Airport)
 
Road maps at: MapQuest Bing Google
 
Aerial photo
No photo
 
Sectional chart

 
Airport distance calculator
Flying to Lake View Airport? Find the distance to fly.

From to TN10

Sunrise and sunset
Times for 09-Aug-2020
 Local
(UTC-4)
 Zulu
(UTC)
Morning civil twilight06:2210:22
Sunrise06:5010:50
Sunset20:3100:31
Evening civil twilight20:5900:59

Current date and time
Zulu (UTC)  09-Aug-2020 15:04:47
Local (UTC-4)  09-Aug-2020 11:04:47
 
METAR
K1A6 
16nm N 
091455Z AUTO 00000KT 10SM CLR 20/18 A3024 RMK AO2 T02040178
KJAU 
19nm W 
091455Z AUTO 00000KT 10SM CLR 26/18 A3024 RMK A01
KMOR 
22nm SE 
091455Z AUTO VRB03KT 10SM CLR 27/19 A3020 RMK A01
KDKX 
23nm S 
091455Z AUTO 00000KT 10SM CLR 27/21 A3019 RMK A01
KOQT 
29nm SW 
091453Z AUTO 00000KT 10SM CLR 27/19 A3021 RMK AO2 SLP213 T02720189 51001
KGKT 
31nm SE 
091455Z AUTO 00000KT 10SM CLR 27/18 A3019 RMK A01
TAF
NOTAMs
Click for the latest NOTAMs
NOTAMs are issued by the DoD/FAA and will open in a separate window not controlled by AirNav.

 

 
 

Would you like to see your business listed on this page?

 If your business provides an interesting product or service to pilots, flight crews, aircraft, or users of the Lake View Airport, you should consider listing it here.  To start the listing process, click on the button below
 
Add a business
 

Other Pages about Lake View Airport

Update a link
 
Copyright © AirNav, LLC. All rights reserved. Privacy Policy  Contact